Durbin, North Dakota
Current Conditions -  °F | °C
As of 7:46 AM on Friday 19 Dec 2014 (Local Time) from KFAR Reporting Station
Haze Haze  
Wind Chill: 13°   Ceiling: 500
Heat Index: 25°   Visibility: 4mi
Dew Point: 23°   Wind: 14mph
Humidity: 92%   Direction: 160°SSE
Pressure: 30.09"   Gusts: NA
Location:  46.834°N, 97.0841°W
Report Text: KFAR 191346Z 16012KT 4SM BR OVC005 M04/M05 A3009 RMK AO2 T10391050
Loading
Personal Weather Stations






























Interactive Weather Map New forecast layout! Learn more

10-Day Weather Forecast

Advertisements
Track Severe Weather on mobile